Main page
Satellite images 15-day forecastsClimateMarine weather Cyclones Lightning AirportsFAQ Newsletter About
Weather : Europe Africa North America South America Asia Australia-Oceania Others
Languages Contact

Frankfurt, Germany

latitude: 50-03N, longitude: 008-36E, elevation: 111 m


METAR: EDDF 210220Z 06005KT CAVOK 08/05 Q1005 NOSIG
short-TAF: out of date (47833 hours)
long-TAF: EDDF 201700Z 2018/2124 06006KT 9999 FEW045 PROB30 TEMPO 2110/2120 SHRA SCT035CB

Time: 04:26 (02:26 UTC)

Current weather observation

The report was made 6 minutes ago, at 02:20 UTC  
Wind 05 kt from east/northeast
Temperature 8°C
Humidity 81%
Pressure 1005 hPa
Visibility 10 km or more
no clouds below 1500 m and no cumulonimbus

Change units

Forecast

The report was made 8 hours and 59 minutes ago, at 17:27 UTC  
Forecast valid from 20 at 18 UTC to 21 at 24 UTC
Wind 06 kt from east/northeast
Visibility 10 km or more
Few clouds at a height of 4500 ft
Probability 30% :
Temporary
from 21 at 10 UTC to 21 at 20 UTC
Scattered clouds at a height of 3500 ft , Cumulonimbus.
rain showers
The information on this site is subject to a disclaimer
Weather : Europe Africa North America South America Asia Australia-Oceania Others
Satellite images 15-day forecastsClimateMarine weather Cyclones Lightning AirportsFAQ Languages Contact Newsletter About